createdAt,value
2018-08-11T08:14:23.626Z,96763.77
2018-08-11T08:16:52.213Z,96756.77
2018-08-11T08:19:20.836Z,96767.52
2018-08-11T08:21:49.424Z,96772.75
2018-08-11T08:24:17.977Z,96772.72
2018-08-11T08:26:46.547Z,96766.33
2018-08-11T08:29:15.271Z,96766.24
2018-08-11T08:31:43.845Z,96763.39
2018-08-11T08:34:13.237Z,96767.85
2018-08-11T08:36:41.822Z,96758.16
2018-08-11T08:39:12.680Z,96755.88
2018-08-11T08:41:41.817Z,96756.69
2018-08-11T08:44:10.364Z,96752.61
2018-08-11T08:46:38.907Z,96754.40
2018-08-11T08:49:07.500Z,96760.98
2018-08-11T08:51:37.148Z,96754.20
2018-08-11T08:54:05.844Z,96754.09
2018-08-11T08:56:34.403Z,96745.25
2018-08-11T08:59:02.995Z,96751.21
2018-08-11T09:01:31.528Z,96751.81
2018-08-11T09:04:00.163Z,96751.12
2018-08-11T09:06:28.787Z,96746.58
2018-08-11T09:08:57.360Z,96737.03
2018-08-11T09:11:26.066Z,96732.48
2018-08-11T09:13:57.590Z,96727.80
2018-08-11T09:16:26.332Z,96728.12
2018-08-11T09:18:54.894Z,96735.13
2018-08-11T09:21:23.437Z,96724.67
2018-08-11T09:23:52.008Z,96727.47
2018-08-11T09:26:20.590Z,96728.50
2018-08-11T09:28:49.181Z,96729.04
2018-08-11T09:31:17.779Z,96722.53
2018-08-11T09:33:46.595Z,96717.11
2018-08-11T09:36:16.176Z,96719.93
2018-08-11T09:38:44.744Z,96714.55
2018-08-11T09:41:13.468Z,96716.39
2018-08-11T09:43:42.177Z,96707.56
2018-08-11T09:46:10.724Z,96718.60
2018-08-11T09:48:39.517Z,96712.47
2018-08-11T09:51:08.413Z,96715.39
2018-08-11T09:53:37.975Z,96718.47
2018-08-11T09:56:06.716Z,96712.36
2018-08-11T09:58:35.288Z,96720.03
2018-08-11T10:01:09.028Z,96711.42
2018-08-11T10:03:37.652Z,96707.87
2018-08-11T10:06:06.549Z,96705.58
2018-08-11T10:08:35.230Z,96707.06
2018-08-11T10:11:03.842Z,96706.50
2018-08-11T10:13:32.437Z,96697.47
2018-08-11T10:16:01.203Z,96696.20
2018-08-11T10:18:29.935Z,96697.28
2018-08-11T10:20:58.516Z,96700.25
2018-08-11T10:23:27.524Z,96697.51
2018-08-11T10:26:24.809Z,96703.20
2018-08-11T10:28:53.436Z,96701.81
2018-08-11T10:31:22.310Z,96697.95
2018-08-11T10:33:50.910Z,96704.06
2018-08-11T10:36:19.452Z,96698.95
2018-08-11T10:38:48.011Z,96697.28
2018-08-11T10:41:16.875Z,96700.39
2018-08-11T10:43:45.437Z,96696.22
2018-08-11T10:46:13.991Z,96697.00
2018-08-11T10:48:42.884Z,96703.63
2018-08-11T10:51:11.515Z,96696.39
2018-08-11T10:53:40.092Z,96688.78
2018-08-11T10:56:08.924Z,96689.42
2018-08-11T10:58:37.666Z,96695.20
2018-08-11T11:01:06.225Z,96691.54
2018-08-11T11:03:34.767Z,96696.09
2018-08-11T11:06:03.674Z,96696.34
2018-08-11T11:08:32.404Z,96693.20
2018-08-11T11:11:00.935Z,96686.47
2018-08-11T11:13:29.858Z,96680.38
2018-08-11T11:15:58.415Z,96680.67
2018-08-11T11:18:27.011Z,96678.53
2018-08-11T11:20:55.581Z,96679.65
2018-08-11T11:23:24.136Z,96660.00
2018-08-11T11:25:52.739Z,96667.10
2018-08-11T11:28:21.499Z,96673.75
2018-08-11T11:30:50.031Z,96680.67
2018-08-11T11:33:18.597Z,96664.08
2018-08-11T11:35:47.267Z,96670.56
2018-08-11T11:38:16.076Z,96672.98
2018-08-11T11:40:44.760Z,96668.92
2018-08-11T11:43:13.921Z,96674.67
2018-08-11T11:45:42.641Z,96662.55
2018-08-11T11:48:12.359Z,96652.59
2018-08-11T11:50:40.953Z,96662.95
2018-08-11T11:53:09.619Z,96658.84
2018-08-11T11:55:38.505Z,96661.34
2018-08-11T11:58:07.043Z,96654.79
2018-08-11T12:00:36.568Z,96659.73
2018-08-11T12:03:05.219Z,96654.87
2018-08-11T12:05:33.760Z,96645.53
2018-08-11T12:08:03.145Z,96666.47
2018-08-11T12:10:32.119Z,96648.00
2018-08-11T12:13:00.916Z,96642.66
2018-08-11T12:15:29.544Z,96647.30
2018-08-11T12:17:58.182Z,96636.71
2018-08-11T12:20:26.753Z,96640.29
2018-08-11T12:22:55.356Z,96644.80
2018-08-11T12:25:24.016Z,96647.69
2018-08-11T12:27:52.564Z,96635.58
2018-08-11T12:30:21.219Z,96638.45
2018-08-11T12:32:49.811Z,96648.55
2018-08-11T12:35:18.424Z,96644.09
2018-08-11T12:37:47.001Z,96634.75
2018-08-11T12:40:15.616Z,96646.44
2018-08-11T12:42:44.193Z,96642.19
2018-08-11T12:45:13.557Z,96636.58
2018-08-11T12:47:42.179Z,96637.97
2018-08-11T12:50:10.803Z,96632.09
2018-08-11T12:52:39.558Z,96630.74
2018-08-11T12:55:08.182Z,96628.12
2018-08-11T12:57:36.847Z,96627.99
2018-08-11T13:00:06.455Z,96632.44
2018-08-11T13:02:35.103Z,96629.02
2018-08-11T13:05:04.168Z,96618.54
2018-08-11T13:07:32.935Z,96627.84
2018-08-11T13:10:01.556Z,96618.30
2018-08-11T13:12:30.589Z,96603.52
2018-08-11T13:14:59.210Z,96608.08
2018-08-11T13:17:28.155Z,96609.23
2018-08-11T13:19:56.720Z,96599.41
2018-08-11T13:22:25.535Z,96603.91
2018-08-11T13:24:54.097Z,96607.63
2018-08-11T13:27:22.760Z,96610.16
2018-08-11T13:29:51.432Z,96609.64
2018-08-11T13:32:20.026Z,96601.93
2018-08-11T13:34:49.554Z,96599.02
2018-08-11T13:37:18.269Z,96588.88
2018-08-11T13:39:48.576Z,96588.02
2018-08-11T13:42:17.285Z,96591.91
2018-08-11T13:44:46.021Z,96592.25
2018-08-11T13:47:16.163Z,96585.66
2018-08-11T13:49:44.811Z,96589.91
2018-08-11T13:52:13.476Z,96585.46
2018-08-11T13:54:42.170Z,96580.94
2018-08-11T13:57:10.788Z,96582.46
2018-08-11T13:59:39.386Z,96574.67
2018-08-11T14:02:07.998Z,96579.48
2018-08-11T14:04:36.851Z,96570.98
2018-08-11T14:07:05.457Z,96567.97
2018-08-11T14:09:34.888Z,96572.38
2018-08-11T14:12:03.579Z,96566.70
2018-08-11T14:14:33.156Z,96571.26
2018-08-11T14:17:01.816Z,96568.39
2018-08-11T14:19:30.447Z,96564.82
2018-08-11T14:21:59.150Z,96561.38
2018-08-11T14:24:28.022Z,96560.72
2018-08-11T14:26:56.680Z,96568.38
2018-08-11T14:32:16.604Z,96558.72
2018-08-11T14:34:45.415Z,96563.25
2018-08-11T14:37:13.984Z,96558.47
2018-08-11T14:39:42.619Z,96554.65
2018-08-11T14:42:11.346Z,96559.69
2018-08-11T14:44:40.241Z,96551.82
2018-08-11T14:47:08.896Z,96546.42
2018-08-11T14:49:37.438Z,96551.64
2018-08-11T14:52:06.284Z,96540.82
2018-08-11T14:54:35.094Z,96545.73
2018-08-11T14:57:03.672Z,96539.78
2018-08-11T14:59:32.435Z,96541.46
2018-08-11T15:02:01.487Z,96544.31
2018-08-11T15:04:30.049Z,96549.41
2018-08-11T15:06:58.612Z,96549.15
2018-08-11T15:09:27.317Z,96546.30
2018-08-11T15:11:55.857Z,96545.75
2018-08-11T15:14:24.400Z,96539.60
2018-08-11T15:16:53.000Z,96546.59
2018-08-11T15:19:21.599Z,96543.41
2018-08-11T15:21:50.236Z,96549.83
2018-08-11T15:24:19.083Z,96545.62
2018-08-11T15:26:47.660Z,96543.98
2018-08-11T15:29:16.244Z,96547.16
2018-08-11T15:31:45.199Z,96542.45
2018-08-11T15:34:14.113Z,96542.38
2018-08-11T15:36:42.673Z,96537.52
2018-08-11T15:39:13.808Z,96545.25
2018-08-11T15:41:42.712Z,96535.94
2018-08-11T15:44:11.423Z,96535.55
2018-08-11T15:46:39.980Z,96525.23
2018-08-11T15:49:08.754Z,96524.87
2018-08-11T15:51:37.356Z,96535.50
2018-08-11T15:54:07.723Z,96529.05
2018-08-11T15:56:36.384Z,96518.22
2018-08-11T15:59:05.226Z,96512.86
2018-08-11T16:01:33.880Z,96522.08
2018-08-11T16:04:02.444Z,96515.94
2018-08-11T16:06:32.175Z,96515.84
2018-08-11T16:09:00.886Z,96521.75
2018-08-11T16:11:29.536Z,96521.55
2018-08-11T16:13:58.208Z,96522.28
2018-08-11T16:16:26.903Z,96523.81
2018-08-11T16:21:58.304Z,96520.22
2018-08-11T16:24:27.042Z,96524.61
2018-08-11T16:26:55.736Z,96524.77
2018-08-11T16:29:30.537Z,96524.84
2018-08-11T16:32:07.479Z,96525.69
2018-08-11T16:34:36.097Z,96525.91
2018-08-11T16:37:04.660Z,96518.67
2018-08-11T16:39:33.349Z,96518.97
2018-08-11T16:42:01.931Z,96517.59
2018-08-11T16:44:30.538Z,96519.01
2018-08-11T16:46:59.076Z,96514.62
2018-08-11T16:49:27.659Z,96511.30
2018-08-11T16:51:56.232Z,96513.91
2018-08-11T16:54:24.808Z,96509.05
2018-08-11T16:56:53.547Z,96515.30
2018-08-11T16:59:22.425Z,96519.03
2018-08-11T17:01:50.979Z,96520.50
2018-08-11T17:04:19.572Z,96529.39
2018-08-11T17:06:48.189Z,96527.41
2018-08-11T17:09:17.777Z,96527.84
2018-08-11T17:11:46.607Z,96530.74
2018-08-11T17:14:15.208Z,96533.87
2018-08-11T17:16:43.818Z,96535.93
2018-08-11T17:19:12.507Z,96540.98
2018-08-11T17:21:41.058Z,96537.34
2018-08-11T17:24:09.664Z,96540.89
2018-08-11T17:26:38.199Z,96542.77
2018-08-11T17:29:07.028Z,96538.70
2018-08-11T17:31:35.575Z,96540.33
2018-08-11T17:34:04.170Z,96545.31
2018-08-11T17:36:32.812Z,96543.93
2018-08-11T17:39:01.388Z,96539.13
2018-08-11T17:41:29.953Z,96541.61
2018-08-11T17:43:58.606Z,96541.37
2018-08-11T17:46:27.180Z,96544.84
2018-08-11T17:48:55.792Z,96544.69
2018-08-11T17:51:24.625Z,96550.02
2018-08-11T17:53:53.179Z,96550.81
2018-08-11T17:56:21.756Z,96553.24
2018-08-11T17:58:50.409Z,96554.63
2018-08-11T18:01:18.958Z,96555.70
2018-08-11T18:03:47.593Z,96556.71
2018-08-11T18:06:16.179Z,96554.72
2018-08-11T18:08:44.842Z,96560.88
2018-08-11T18:11:13.498Z,96564.96
2018-08-11T18:13:42.041Z,96565.09
2018-08-11T18:16:10.613Z,96569.34
2018-08-11T18:18:39.316Z,96569.64
2018-08-11T18:21:07.871Z,96574.88
2018-08-11T18:23:36.480Z,96578.31
2018-08-11T18:26:05.714Z,96587.02
2018-08-11T18:28:34.488Z,96583.18
2018-08-11T18:31:03.744Z,96587.40
2018-08-11T18:33:32.635Z,96592.97
2018-08-11T18:36:01.387Z,96596.17
2018-08-11T18:38:30.018Z,96595.02
2018-08-11T18:40:58.584Z,96607.80
2018-08-11T18:43:27.259Z,96613.23
2018-08-11T18:45:56.173Z,96616.79
2018-08-11T18:48:24.756Z,96616.42
2018-08-11T18:50:53.800Z,96620.59
2018-08-11T18:53:22.596Z,96619.27
2018-08-11T18:55:51.236Z,96623.03
2018-08-11T18:58:19.960Z,96622.72
2018-08-11T19:00:59.688Z,96621.88
2018-08-11T19:03:28.983Z,96629.52
2018-08-11T19:05:57.646Z,96634.09
2018-08-11T19:08:30.520Z,96631.34
2018-08-11T19:11:03.877Z,96638.17
2018-08-11T19:13:32.501Z,96640.62
2018-08-11T19:16:01.168Z,96644.37
2018-08-11T19:18:29.723Z,96645.55
2018-08-11T19:20:58.286Z,96645.20
2018-08-11T19:23:26.878Z,96650.41
2018-08-11T19:25:55.495Z,96650.12
2018-08-11T19:28:24.409Z,96646.27
2018-08-11T19:30:52.989Z,96651.02
2018-08-11T19:33:21.555Z,96652.95
2018-08-11T19:35:50.476Z,96647.52
2018-08-11T19:38:19.071Z,96646.66
2018-08-11T19:40:48.719Z,96644.89
2018-08-11T19:43:18.198Z,96643.66
2018-08-11T19:45:46.760Z,96649.89
2018-08-11T19:48:15.364Z,96650.91
2018-08-11T19:50:45.132Z,96657.95
2018-08-11T19:53:13.700Z,96646.70
2018-08-11T19:55:42.328Z,96657.50
2018-08-11T19:58:10.936Z,96659.33
2018-08-11T20:00:39.521Z,96657.23
2018-08-11T20:03:08.132Z,96663.41
2018-08-11T20:05:36.755Z,96661.79
2018-08-11T20:08:05.343Z,96664.92
2018-08-11T20:10:34.109Z,96666.23
2018-08-11T20:13:03.292Z,96665.89
2018-08-11T20:15:31.872Z,96674.02
2018-08-11T20:18:00.527Z,96669.28
2018-08-11T20:20:29.228Z,96675.91
2018-08-11T20:22:57.786Z,96674.16
2018-08-11T20:25:26.455Z,96673.14
2018-08-11T20:27:54.968Z,96672.67
2018-08-11T20:30:23.632Z,96677.59
2018-08-11T20:32:52.247Z,96683.57
2018-08-11T20:35:20.898Z,96677.44
2018-08-11T20:37:49.679Z,96676.13
2018-08-11T20:40:18.308Z,96672.22
2018-08-11T20:42:46.937Z,96674.34
2018-08-11T20:45:15.536Z,96679.38
2018-08-11T20:47:44.135Z,96682.48
2018-08-11T20:50:12.716Z,96683.61
2018-08-11T20:52:41.427Z,96679.70
2018-08-11T20:55:11.460Z,96685.23
2018-08-11T20:57:40.280Z,96683.77
2018-08-11T21:00:11.183Z,96685.23
2018-08-11T21:02:39.761Z,96690.42
2018-08-11T21:05:10.849Z,96687.78
2018-08-11T21:07:40.149Z,96691.69
2018-08-11T21:10:11.467Z,96687.13
2018-08-11T21:12:40.571Z,96691.84
2018-08-11T21:15:09.938Z,96693.14
2018-08-11T21:17:39.295Z,96696.38
2018-08-11T21:20:10.427Z,96699.25
2018-08-11T21:22:39.059Z,96704.39
2018-08-11T21:25:08.704Z,96710.53
2018-08-11T21:27:37.688Z,96715.80
2018-08-11T21:30:11.528Z,96713.70
2018-08-11T21:32:40.183Z,96718.55
2018-08-11T21:35:09.551Z,96715.66
2018-08-11T21:37:39.031Z,96718.14
2018-08-11T21:40:11.160Z,96718.80
2018-08-11T21:42:40.118Z,96712.94
2018-08-11T21:45:09.440Z,96716.83
2018-08-11T21:47:38.525Z,96717.50
2018-08-11T21:50:07.743Z,96708.75
2018-08-11T21:52:36.691Z,96711.00
2018-08-11T21:55:05.924Z,96707.08
2018-08-11T21:57:35.119Z,96706.31
2018-08-11T22:00:03.805Z,96701.11
2018-08-11T22:02:32.439Z,96704.40
2018-08-11T22:05:01.088Z,96704.58
2018-08-11T22:07:29.843Z,96706.55
2018-08-11T22:09:58.504Z,96704.40
2018-08-11T22:12:27.249Z,96704.56
2018-08-11T22:14:55.823Z,96701.83
2018-08-11T22:20:56.281Z,96705.41
2018-08-11T22:23:24.928Z,96703.61
2018-08-11T22:25:53.492Z,96705.36
2018-08-11T22:28:22.087Z,96700.80
2018-08-11T22:30:50.745Z,96690.59
2018-08-11T22:33:19.389Z,96693.84
2018-08-11T22:35:48.040Z,96692.86
2018-08-11T22:38:16.871Z,96696.61
2018-08-11T22:40:45.655Z,96694.64
2018-08-11T22:43:14.519Z,96693.16
2018-08-11T22:45:43.104Z,96697.67
2018-08-11T22:48:11.717Z,96699.45
2018-08-11T22:50:40.471Z,96696.03
2018-08-11T22:53:09.115Z,96696.16
2018-08-11T22:55:38.204Z,96687.28
2018-08-11T22:58:06.963Z,96686.90
2018-08-11T23:00:37.187Z,96689.34
2018-08-11T23:03:06.178Z,96688.71
2018-08-11T23:05:34.927Z,96690.64
2018-08-11T23:08:03.616Z,96685.64
2018-08-11T23:10:32.270Z,96683.64
2018-08-11T23:13:01.031Z,96688.98
2018-08-11T23:15:30.182Z,96686.31
2018-08-11T23:18:00.215Z,96684.27
2018-08-11T23:20:28.748Z,96682.97
2018-08-11T23:22:57.327Z,96681.99
2018-08-11T23:25:26.017Z,96685.20
2018-08-11T23:27:54.591Z,96685.02
2018-08-11T23:30:23.263Z,96684.55
2018-08-11T23:32:51.810Z,96686.11
2018-08-11T23:35:20.432Z,96683.73
2018-08-11T23:38:00.866Z,96683.48
2018-08-11T23:40:29.844Z,96681.50
2018-08-11T23:42:59.023Z,96684.52
2018-08-11T23:45:27.668Z,96680.84
2018-08-11T23:47:56.323Z,96675.41
2018-08-11T23:50:25.023Z,96675.94
2018-08-11T23:52:54.517Z,96671.92
2018-08-11T23:55:23.102Z,96673.86
2018-08-11T23:57:52.835Z,96668.23
